createdAt,value
2018-10-05T00:00:50.141Z,992.441
2018-10-05T00:02:50.118Z,992.432
2018-10-05T00:04:50.551Z,992.451
2018-10-05T00:06:49.673Z,992.431
2018-10-05T00:08:50.603Z,992.431
2018-10-05T00:10:49.666Z,992.414
2018-10-05T00:12:50.194Z,992.403
2018-10-05T00:14:50.520Z,992.384
2018-10-05T00:16:49.750Z,992.376
2018-10-05T00:18:49.893Z,992.344
2018-10-05T00:20:49.940Z,992.327
2018-10-05T00:22:49.873Z,992.305
2018-10-05T00:24:49.952Z,992.282
2018-10-05T00:26:50.200Z,992.251
2018-10-05T00:28:50.165Z,992.203
2018-10-05T00:30:50.188Z,992.172
2018-10-05T00:32:50.217Z,992.138
2018-10-05T00:34:50.580Z,992.136
2018-10-05T00:36:49.754Z,992.122
2018-10-05T00:38:49.775Z,992.127
2018-10-05T00:40:49.853Z,992.109
2018-10-05T00:42:49.803Z,992.088
2018-10-05T00:44:49.800Z,992.076
2018-10-05T00:46:49.923Z,992.071
2018-10-05T00:48:49.881Z,992.070
2018-10-05T00:50:49.844Z,992.058
2018-10-05T00:52:49.968Z,992.050
2018-10-05T00:54:50.138Z,992.039
2018-10-05T00:56:50.333Z,992.035
2018-10-05T00:58:50.342Z,992.024
2018-10-05T01:00:50.333Z,992.021
2018-10-05T01:02:50.361Z,992.029
2018-10-05T01:04:49.622Z,992.007
2018-10-05T01:06:49.815Z,991.988
2018-10-05T01:08:49.817Z,991.985
2018-10-05T01:10:49.799Z,991.984
2018-10-05T01:12:49.777Z,991.995
2018-10-05T01:14:49.825Z,991.994
2018-10-05T01:16:50.032Z,991.994
2018-10-05T01:18:50.066Z,991.960
2018-10-05T01:20:50.076Z,991.938
2018-10-05T01:22:50.043Z,991.944
2018-10-05T01:24:50.366Z,991.943
2018-10-05T01:26:49.831Z,991.947
2018-10-05T01:28:49.815Z,991.934
2018-10-05T01:30:49.972Z,991.940
2018-10-05T01:32:50.050Z,991.929
2018-10-05T01:34:50.616Z,991.933
2018-10-05T01:36:49.888Z,991.942
2018-10-05T01:38:50.089Z,991.948
2018-10-05T01:40:50.332Z,991.925
2018-10-05T01:42:50.312Z,991.925
2018-10-05T01:44:50.263Z,991.907
2018-10-05T01:46:50.568Z,991.910
2018-10-05T01:48:50.563Z,991.901
2018-10-05T01:50:50.582Z,991.895
2018-10-05T01:52:50.619Z,991.869
2018-10-05T01:54:49.655Z,991.839
2018-10-05T01:56:49.847Z,991.818
2018-10-05T01:58:49.848Z,991.823
2018-10-05T02:00:49.779Z,991.816
2018-10-05T02:02:49.885Z,991.835
2018-10-05T02:04:50.266Z,991.848
2018-10-05T02:06:50.444Z,991.855
2018-10-05T02:08:49.923Z,991.815
2018-10-05T02:10:49.947Z,991.810
2018-10-05T02:12:49.903Z,991.777
2018-10-05T02:14:49.899Z,991.782
2018-10-05T02:16:50.002Z,991.774
2018-10-05T02:18:50.015Z,991.766
2018-10-05T02:20:50.035Z,991.743
2018-10-05T02:22:49.991Z,991.736
2018-10-05T02:24:49.957Z,991.781
2018-10-05T02:26:50.128Z,991.781
2018-10-05T02:28:50.204Z,991.743
2018-10-05T02:30:50.161Z,991.714
2018-10-05T02:32:50.373Z,991.665
2018-10-05T02:34:49.876Z,991.638
2018-10-05T02:36:50.003Z,991.619
2018-10-05T02:38:49.984Z,991.614
2018-10-05T02:40:49.970Z,991.607
2018-10-05T02:42:49.965Z,991.599
2018-10-05T02:44:49.947Z,991.562
2018-10-05T02:46:50.117Z,991.548
2018-10-05T02:48:50.178Z,991.522
2018-10-05T02:50:50.210Z,991.520
2018-10-05T02:52:50.217Z,991.506
2018-10-05T02:54:50.243Z,991.478
2018-10-05T02:56:50.440Z,991.452
2018-10-05T02:58:50.549Z,991.420
2018-10-05T03:00:50.512Z,991.411
2018-10-05T03:02:49.669Z,991.422
2018-10-05T03:04:50.546Z,991.409
2018-10-05T03:06:49.915Z,991.409
2018-10-05T03:08:49.837Z,991.360
2018-10-05T03:10:50.073Z,991.348
2018-10-05T03:12:50.059Z,991.340
2018-10-05T03:14:50.100Z,991.332
2018-10-05T03:16:50.262Z,991.331
2018-10-05T03:18:50.256Z,991.331
2018-10-05T03:20:50.460Z,991.364
2018-10-05T03:22:50.362Z,991.385
2018-10-05T03:24:50.482Z,991.405
2018-10-05T03:26:49.704Z,991.421
2018-10-05T03:28:49.752Z,991.412
2018-10-05T03:30:49.824Z,991.412
2018-10-05T03:32:49.945Z,991.384
2018-10-05T03:34:50.249Z,991.355
2018-10-05T03:36:50.375Z,991.343
2018-10-05T03:38:50.330Z,991.321
2018-10-05T03:40:50.366Z,991.298
2018-10-05T03:42:50.377Z,991.270
2018-10-05T03:44:50.363Z,991.235
2018-10-05T03:46:50.518Z,991.178
2018-10-05T03:48:50.418Z,991.165
2018-10-05T03:50:50.477Z,991.169
2018-10-05T03:52:50.520Z,991.200
2018-10-05T03:54:50.608Z,991.211
2018-10-05T03:56:49.802Z,991.251
2018-10-05T03:58:50.111Z,991.241
2018-10-05T04:00:50.119Z,991.198
2018-10-05T04:02:50.170Z,991.165
2018-10-05T04:04:50.496Z,991.131
2018-10-05T04:06:49.637Z,991.111
2018-10-05T04:08:49.787Z,991.126
2018-10-05T04:10:49.807Z,991.127
2018-10-05T04:12:49.877Z,991.108
2018-10-05T04:14:49.853Z,991.099
2018-10-05T04:16:50.037Z,991.088
2018-10-05T04:18:50.024Z,991.059
2018-10-05T04:20:50.069Z,991.059
2018-10-05T04:22:50.098Z,991.062
2018-10-05T04:24:50.138Z,991.051
2018-10-05T04:26:49.642Z,991.022
2018-10-05T04:28:49.886Z,991.008
2018-10-05T04:30:49.904Z,991.010
2018-10-05T04:32:49.823Z,991.019
2018-10-05T04:34:50.149Z,991.025
2018-10-05T04:36:50.397Z,991.015
2018-10-05T04:38:50.439Z,991.028
2018-10-05T04:40:50.468Z,991.035
2018-10-05T04:42:50.449Z,991.066
2018-10-05T04:44:50.430Z,991.063
2018-10-05T04:46:49.619Z,991.051
2018-10-05T04:48:49.606Z,991.018
2018-10-05T04:50:49.753Z,990.977
2018-10-05T04:52:49.736Z,990.951
2018-10-05T04:54:49.758Z,990.939
2018-10-05T04:56:50.366Z,990.914
2018-10-05T04:58:49.627Z,990.922
2018-10-05T05:00:49.656Z,990.941
2018-10-05T05:02:49.709Z,990.962
2018-10-05T05:04:50.187Z,990.973
2018-10-05T05:06:50.278Z,990.973
2018-10-05T05:08:50.276Z,990.947
2018-10-05T05:10:50.311Z,990.941
2018-10-05T05:12:50.298Z,990.917
2018-10-05T05:14:50.364Z,990.911
2018-10-05T05:16:49.647Z,990.896
2018-10-05T05:18:49.694Z,990.885
2018-10-05T05:20:49.847Z,990.889
2018-10-05T05:22:49.832Z,990.898
2018-10-05T05:24:49.849Z,990.896
2018-10-05T05:26:50.161Z,990.892
2018-10-05T05:28:50.143Z,990.901
2018-10-05T05:30:50.220Z,990.926
2018-10-05T05:32:50.214Z,990.936
2018-10-05T05:34:50.634Z,990.930
2018-10-05T05:36:50.585Z,990.950
2018-10-05T05:38:49.663Z,990.955
2018-10-05T05:40:49.745Z,990.975
2018-10-05T05:42:50.036Z,990.971
2018-10-05T05:44:50.057Z,990.974
2018-10-05T05:46:50.477Z,990.943
2018-10-05T05:48:49.896Z,990.947
2018-10-05T05:50:49.877Z,990.945
2018-10-05T05:52:49.850Z,990.955
2018-10-05T05:54:50.083Z,990.974
2018-10-05T05:56:50.309Z,990.999
2018-10-05T05:58:50.403Z,991.003
2018-10-05T06:00:50.389Z,991.009
2018-10-05T06:02:50.370Z,991.014
2018-10-05T06:04:50.037Z,991.034
2018-10-05T06:06:50.236Z,991.034
2018-10-05T06:08:50.189Z,991.047
2018-10-05T06:10:50.222Z,991.045
2018-10-05T06:12:50.254Z,991.061
2018-10-05T06:14:50.372Z,991.061
2018-10-05T06:16:50.499Z,991.066
2018-10-05T06:18:49.720Z,991.081
2018-10-05T06:20:49.823Z,991.083
2018-10-05T06:22:49.871Z,991.103
2018-10-05T06:24:49.857Z,991.098
2018-10-05T06:26:49.974Z,991.098
2018-10-05T06:28:49.966Z,991.079
2018-10-05T06:30:50.413Z,991.070
2018-10-05T06:32:49.782Z,991.067
2018-10-05T06:34:50.220Z,991.067
2018-10-05T06:36:50.497Z,991.067
2018-10-05T06:38:49.686Z,991.095
2018-10-05T06:40:49.788Z,991.081
2018-10-05T06:42:49.826Z,991.109
2018-10-05T06:44:49.904Z,991.124
2018-10-05T06:46:49.984Z,991.162
2018-10-05T06:48:50.047Z,991.188
2018-10-05T06:50:50.072Z,991.237
2018-10-05T06:52:50.137Z,991.235
2018-10-05T06:54:50.052Z,991.222
2018-10-05T06:56:50.288Z,991.218
2018-10-05T06:58:50.304Z,991.229
2018-10-05T07:00:50.311Z,991.267
2018-10-05T07:02:50.393Z,991.259
2018-10-05T07:04:49.661Z,991.271
2018-10-05T07:06:49.809Z,991.249
2018-10-05T07:08:49.915Z,991.249
2018-10-05T07:10:49.941Z,991.236
2018-10-05T07:12:49.927Z,991.243
2018-10-05T07:14:49.970Z,991.229
2018-10-05T07:16:50.137Z,991.229
2018-10-05T07:18:50.233Z,991.244
2018-10-05T07:20:50.252Z,991.228
2018-10-05T07:22:50.325Z,991.191
2018-10-05T07:24:50.277Z,991.182
2018-10-05T07:26:50.543Z,991.174
2018-10-05T07:28:51.090Z,991.164
2018-10-05T07:30:50.140Z,991.181
2018-10-05T07:32:50.115Z,991.190
2018-10-05T07:34:50.550Z,991.190
2018-10-05T07:36:50.151Z,991.216
2018-10-05T07:38:50.492Z,991.224
2018-10-05T07:40:50.397Z,991.198
2018-10-05T07:42:50.493Z,991.150
2018-10-05T07:44:50.721Z,991.125
2018-10-05T07:46:49.878Z,991.101
2018-10-05T07:48:49.850Z,991.064
2018-10-05T07:50:49.839Z,991.044
2018-10-05T07:52:49.876Z,991.037
2018-10-05T07:54:49.955Z,991.009
2018-10-05T07:56:50.146Z,990.985
2018-10-05T07:58:50.170Z,990.984
2018-10-05T08:00:50.198Z,990.989
2018-10-05T08:02:50.230Z,991.007
2018-10-05T08:04:50.474Z,990.996
2018-10-05T08:06:49.749Z,990.979
2018-10-05T08:08:49.826Z,990.911
2018-10-05T08:10:49.833Z,990.898
2018-10-05T08:12:49.728Z,990.860
2018-10-05T08:14:49.851Z,990.819
2018-10-05T08:16:49.964Z,990.809
2018-10-05T08:18:49.992Z,990.786
2018-10-05T08:20:50.046Z,990.756
2018-10-05T08:22:50.114Z,990.737
2018-10-05T08:24:50.089Z,990.703
2018-10-05T08:26:50.333Z,990.677
2018-10-05T08:28:50.357Z,990.616
2018-10-05T08:30:50.353Z,990.581
2018-10-05T08:32:50.280Z,990.555
2018-10-05T08:34:49.788Z,990.555
2018-10-05T08:36:50.072Z,990.490
2018-10-05T08:38:50.038Z,990.470
2018-10-05T08:40:50.042Z,990.463
2018-10-05T08:42:50.039Z,990.463
2018-10-05T08:44:50.000Z,990.417
2018-10-05T08:46:50.169Z,990.337
2018-10-05T08:48:50.140Z,990.312
2018-10-05T08:50:50.179Z,990.277
2018-10-05T08:52:50.258Z,990.229
2018-10-05T08:54:50.205Z,990.203
2018-10-05T08:56:50.386Z,990.189
2018-10-05T08:58:50.438Z,990.191
2018-10-05T09:00:50.437Z,990.142
2018-10-05T09:02:50.483Z,990.133
2018-10-05T09:04:49.904Z,990.087
2018-10-05T09:06:50.117Z,990.044
2018-10-05T09:08:50.115Z,990.002
2018-10-05T09:10:50.090Z,989.965
2018-10-05T09:12:50.099Z,989.924
2018-10-05T09:14:50.108Z,989.907
2018-10-05T09:16:50.275Z,989.910
2018-10-05T09:18:50.272Z,989.910
2018-10-05T09:20:50.434Z,989.898
2018-10-05T09:22:50.407Z,989.903
2018-10-05T09:24:50.375Z,989.881
2018-10-05T09:26:49.673Z,989.861
2018-10-05T09:28:49.638Z,989.817
2018-10-05T09:30:50.267Z,989.800
2018-10-05T09:32:50.386Z,989.712
2018-10-05T09:34:49.711Z,989.667
2018-10-05T09:36:49.939Z,989.639
2018-10-05T09:38:49.919Z,989.630
2018-10-05T09:40:49.996Z,989.611
2018-10-05T09:42:50.011Z,989.582
2018-10-05T09:44:50.147Z,989.548
2018-10-05T09:46:50.509Z,989.534
2018-10-05T09:48:50.532Z,989.499
2018-10-05T09:50:50.573Z,989.469
2018-10-05T09:52:49.637Z,989.448
2018-10-05T09:54:49.757Z,989.439
2018-10-05T09:56:49.890Z,989.418
2018-10-05T09:58:49.842Z,989.327
2018-10-05T10:00:49.910Z,989.299
2018-10-05T10:02:49.917Z,989.221
2018-10-05T10:04:50.677Z,989.159
2018-10-05T10:06:49.926Z,989.136
2018-10-05T10:08:49.930Z,989.125
2018-10-05T10:10:49.926Z,989.113
2018-10-05T10:12:49.935Z,989.069
2018-10-05T10:14:49.925Z,989.039
2018-10-05T10:16:50.078Z,988.983
2018-10-05T10:18:50.178Z,988.937
2018-10-05T10:20:50.193Z,988.875
2018-10-05T10:22:50.634Z,988.848
2018-10-05T10:24:49.733Z,988.789
2018-10-05T10:26:50.017Z,988.750
2018-10-05T10:28:50.980Z,988.693
2018-10-05T10:30:49.650Z,988.684
2018-10-05T10:32:49.715Z,988.668
2018-10-05T10:34:50.458Z,988.644
2018-10-05T10:36:50.153Z,988.618
2018-10-05T10:38:49.617Z,988.566
2018-10-05T10:40:50.644Z,988.497
2018-10-05T10:42:49.638Z,988.484
2018-10-05T10:44:49.852Z,988.441
2018-10-05T10:46:49.999Z,988.422
2018-10-05T10:48:50.038Z,988.383
2018-10-05T10:50:49.980Z,988.339
2018-10-05T10:52:49.944Z,988.277
2018-10-05T10:54:49.932Z,988.251
2018-10-05T10:56:50.074Z,988.195
2018-10-05T10:58:50.070Z,988.159
2018-10-05T11:00:50.406Z,988.081
2018-10-05T11:02:49.913Z,988.034
2018-10-05T11:04:50.327Z,987.994
2018-10-05T11:06:49.796Z,987.936
2018-10-05T11:08:49.766Z,987.932
2018-10-05T11:10:49.753Z,987.869
2018-10-05T11:12:49.856Z,987.837
2018-10-05T11:14:49.930Z,987.804
2018-10-05T11:16:50.130Z,987.767
2018-10-05T11:18:50.267Z,987.777
2018-10-05T11:20:50.302Z,987.747
2018-10-05T11:22:50.281Z,987.711
2018-10-05T11:24:50.255Z,987.670
2018-10-05T11:26:50.424Z,987.631
2018-10-05T11:28:50.448Z,987.592
2018-10-05T11:30:50.392Z,987.591
2018-10-05T11:32:50.414Z,987.564
2018-10-05T11:34:49.839Z,987.567
2018-10-05T11:36:50.032Z,987.549
2018-10-05T11:38:50.116Z,987.521
2018-10-05T11:40:50.517Z,987.486
2018-10-05T11:42:50.301Z,987.454
2018-10-05T11:44:50.404Z,987.417
2018-10-05T11:46:49.765Z,987.378
2018-10-05T11:48:49.956Z,987.305
2018-10-05T11:50:50.054Z,987.286
2018-10-05T11:52:50.158Z,987.246
2018-10-05T11:54:50.320Z,987.210
2018-10-05T11:56:49.645Z,987.210
2018-10-05T11:58:49.857Z,987.172
2018-10-05T12:00:50.137Z,987.166
2018-10-05T12:02:50.400Z,987.094
2018-10-05T12:04:49.821Z,987.044
2018-10-05T12:06:50.156Z,987.046
2018-10-05T12:08:50.324Z,987.011
2018-10-05T12:10:50.472Z,986.962
2018-10-05T12:12:49.621Z,986.909
2018-10-05T12:14:49.741Z,986.909
2018-10-05T12:16:50.079Z,986.786
2018-10-05T12:18:50.268Z,986.758
2018-10-05T12:20:50.449Z,986.765
2018-10-05T12:22:50.530Z,986.776
2018-10-05T12:24:49.763Z,986.707
2018-10-05T12:26:50.098Z,986.702
2018-10-05T12:28:50.306Z,986.661
2018-10-05T12:30:50.426Z,986.630
2018-10-05T12:32:50.572Z,986.607
2018-10-05T12:34:50.147Z,986.577
2018-10-05T12:36:50.477Z,986.554
2018-10-05T12:38:49.842Z,986.507
2018-10-05T12:40:49.959Z,986.485
2018-10-05T12:42:50.125Z,986.471
2018-10-05T12:44:50.326Z,986.454
2018-10-05T12:46:49.765Z,986.403
2018-10-05T12:48:49.923Z,986.385
2018-10-05T12:50:50.203Z,986.316
2018-10-05T12:52:50.405Z,986.307
2018-10-05T12:54:49.642Z,986.295
2018-10-05T12:56:49.935Z,986.289
2018-10-05T12:58:50.095Z,986.275
2018-10-05T13:00:50.296Z,986.226
2018-10-05T13:02:50.396Z,986.200
2018-10-05T13:04:50.018Z,986.146
2018-10-05T13:06:49.737Z,986.116
2018-10-05T13:08:49.892Z,986.098
2018-10-05T13:10:50.116Z,986.076
2018-10-05T13:12:50.510Z,986.080
2018-10-05T13:14:49.876Z,986.015
2018-10-05T13:16:50.347Z,986.004
2018-10-05T13:18:50.541Z,986.012
2018-10-05T13:20:49.850Z,986.012
2018-10-05T13:22:50.064Z,985.972
2018-10-05T13:24:50.504Z,985.974
2018-10-05T13:26:50.433Z,985.952
2018-10-05T13:28:50.595Z,985.933
2018-10-05T13:30:49.796Z,985.930
2018-10-05T13:32:49.991Z,985.899
2018-10-05T13:34:50.570Z,985.885
2018-10-05T13:36:49.918Z,985.854
2018-10-05T13:38:50.084Z,985.841
2018-10-05T13:40:50.377Z,985.829
2018-10-05T13:42:50.485Z,985.816
2018-10-05T13:44:49.810Z,985.791
2018-10-05T13:46:50.105Z,985.769
2018-10-05T13:48:50.277Z,985.758
2018-10-05T13:50:50.608Z,985.746
2018-10-05T13:52:50.051Z,985.727
2018-10-05T13:54:50.243Z,985.676
2018-10-05T13:56:50.536Z,985.623
2018-10-05T13:58:49.740Z,985.581
2018-10-05T14:00:49.933Z,985.563
2018-10-05T14:02:50.359Z,985.563
2018-10-05T14:04:50.348Z,985.541
2018-10-05T14:06:49.736Z,985.541
2018-10-05T14:08:49.949Z,985.520
2018-10-05T14:10:50.114Z,985.495
2018-10-05T14:12:50.345Z,985.504
2018-10-05T14:14:49.626Z,985.489
2018-10-05T14:16:50.116Z,985.478
2018-10-05T14:18:50.397Z,985.463
2018-10-05T14:20:50.596Z,985.420
2018-10-05T14:22:49.827Z,985.383
2018-10-05T14:24:49.971Z,985.383
2018-10-05T14:26:50.297Z,985.354
2018-10-05T14:28:50.470Z,985.297
2018-10-05T14:30:49.617Z,985.246
2018-10-05T14:32:49.908Z,985.201
2018-10-05T14:34:50.356Z,985.174
2018-10-05T14:36:49.728Z,985.165
2018-10-05T14:38:50.030Z,985.155
2018-10-05T14:40:50.214Z,985.144
2018-10-05T14:42:50.463Z,985.136
2018-10-05T14:44:49.672Z,985.118
2018-10-05T14:46:50.275Z,985.096
2018-10-05T14:48:50.561Z,985.085
2018-10-05T14:50:49.753Z,985.064
2018-10-05T14:52:49.965Z,985.057
2018-10-05T14:54:50.121Z,985.037
2018-10-05T14:56:50.474Z,985.023
2018-10-05T14:58:49.834Z,985.008
2018-10-05T15:00:49.946Z,984.993
2018-10-05T15:02:50.087Z,984.993
2018-10-05T15:04:49.717Z,984.990
2018-10-05T15:06:49.963Z,984.990
2018-10-05T15:08:50.038Z,984.995
2018-10-05T15:10:50.081Z,984.995
2018-10-05T15:12:50.381Z,984.950
2018-10-05T15:14:49.878Z,984.959
2018-10-05T15:16:50.038Z,984.962
2018-10-05T15:18:50.017Z,984.962
2018-10-05T15:20:49.978Z,984.962
2018-10-05T15:22:50.007Z,984.922
2018-10-05T15:24:49.973Z,984.929
2018-10-05T15:26:50.114Z,984.924
2018-10-05T15:28:50.068Z,984.928
2018-10-05T15:30:50.124Z,984.900
2018-10-05T15:32:50.645Z,984.920
2018-10-05T15:34:49.771Z,984.907
2018-10-05T15:36:49.954Z,984.897
2018-10-05T15:38:50.139Z,984.883
2018-10-05T15:40:50.274Z,984.877
2018-10-05T15:42:50.242Z,984.855
2018-10-05T15:44:50.253Z,984.814
2018-10-05T15:46:50.319Z,984.752
2018-10-05T15:48:49.869Z,984.728
2018-10-05T15:50:49.875Z,984.717
2018-10-05T15:52:50.080Z,984.688
2018-10-05T15:54:50.193Z,984.685
2018-10-05T15:56:50.301Z,984.631
2018-10-05T15:58:50.284Z,984.620
2018-10-05T16:00:50.295Z,984.618
2018-10-05T16:02:50.342Z,984.618
2018-10-05T16:04:49.634Z,984.624
2018-10-05T16:06:49.813Z,984.634
2018-10-05T16:08:49.807Z,984.612
2018-10-05T16:10:49.761Z,984.624
2018-10-05T16:12:50.121Z,984.661
2018-10-05T16:14:50.347Z,984.663
2018-10-05T16:16:50.446Z,984.669
2018-10-05T16:18:50.425Z,984.669
2018-10-05T16:20:50.418Z,984.643
2018-10-05T16:22:50.503Z,984.612
2018-10-05T16:24:50.957Z,984.599
2018-10-05T16:26:50.517Z,984.608
2018-10-05T16:28:50.534Z,984.605
2018-10-05T16:30:50.476Z,984.608
2018-10-05T16:32:50.474Z,984.605
2018-10-05T16:34:49.885Z,984.603
2018-10-05T16:36:50.024Z,984.630
2018-10-05T16:38:49.995Z,984.654
2018-10-05T16:40:49.980Z,984.656
2018-10-05T16:42:50.013Z,984.644
2018-10-05T16:44:50.145Z,984.650
2018-10-05T16:46:50.347Z,984.650
2018-10-05T16:48:50.447Z,984.664
2018-10-05T16:50:50.384Z,984.654
2018-10-05T16:52:50.383Z,984.646
2018-10-05T16:54:50.397Z,984.641
2018-10-05T16:56:50.455Z,984.648
2018-10-05T16:58:50.451Z,984.670
2018-10-05T17:00:50.574Z,984.684
2018-10-05T17:02:49.613Z,984.699
2018-10-05T17:04:49.884Z,984.696
2018-10-05T17:06:49.982Z,984.670
2018-10-05T17:08:49.990Z,984.658
2018-10-05T17:10:50.226Z,984.652
2018-10-05T17:12:50.466Z,984.668
2018-10-05T17:14:50.579Z,984.705
2018-10-05T17:16:49.794Z,984.736
2018-10-05T17:18:49.912Z,984.738
2018-10-05T17:20:49.980Z,984.746
2018-10-05T17:22:49.984Z,984.771
2018-10-05T17:24:49.977Z,984.809
2018-10-05T17:26:50.187Z,984.831
2018-10-05T17:28:50.217Z,984.827
2018-10-05T17:30:50.215Z,984.827
2018-10-05T17:32:50.206Z,984.819
2018-10-05T17:34:50.578Z,984.811
2018-10-05T17:36:49.829Z,984.814
2018-10-05T17:38:49.852Z,984.808
2018-10-05T17:40:49.911Z,984.785
2018-10-05T17:42:49.856Z,984.768
2018-10-05T17:44:49.873Z,984.731
2018-10-05T17:46:49.984Z,984.722
2018-10-05T17:48:49.933Z,984.677
2018-10-05T17:50:49.935Z,984.649
2018-10-05T17:52:49.960Z,984.620
2018-10-05T17:54:49.967Z,984.608
2018-10-05T17:56:49.992Z,984.601
2018-10-05T17:58:50.087Z,984.613
2018-10-05T18:00:50.114Z,984.628
2018-10-05T18:02:50.325Z,984.619
2018-10-05T18:04:50.439Z,984.649
2018-10-05T18:06:50.486Z,984.667
2018-10-05T18:08:49.991Z,984.670
2018-10-05T18:10:49.954Z,984.670
2018-10-05T18:12:49.886Z,984.659
2018-10-05T18:14:50.162Z,984.664
2018-10-05T18:16:49.863Z,984.686
2018-10-05T18:18:49.808Z,984.650
2018-10-05T18:20:49.760Z,984.649
2018-10-05T18:22:49.776Z,984.644
2018-10-05T18:24:49.902Z,984.626
2018-10-05T18:26:50.194Z,984.644
2018-10-05T18:28:50.208Z,984.665
2018-10-05T18:30:50.188Z,984.660
2018-10-05T18:32:50.323Z,984.653
2018-10-05T18:34:50.472Z,984.643
2018-10-05T18:36:49.686Z,984.636
2018-10-05T18:38:49.769Z,984.613
2018-10-05T18:40:49.755Z,984.606
2018-10-05T18:42:49.796Z,984.611
2018-10-05T18:44:49.888Z,984.614
2018-10-05T18:46:50.093Z,984.606
2018-10-05T18:48:50.144Z,984.609
2018-10-05T18:50:50.375Z,984.612
2018-10-05T18:52:50.571Z,984.660
2018-10-05T18:54:50.590Z,984.681
2018-10-05T18:56:49.850Z,984.679
2018-10-05T18:58:49.929Z,984.668
2018-10-05T19:00:49.879Z,984.648
2018-10-05T19:02:49.835Z,984.642
2018-10-05T19:04:50.136Z,984.641
2018-10-05T19:06:50.500Z,984.640
2018-10-05T19:08:49.605Z,984.626
2018-10-05T19:10:49.743Z,984.625
2018-10-05T19:12:49.952Z,984.660
2018-10-05T19:14:49.957Z,984.670
2018-10-05T19:16:50.159Z,984.675
2018-10-05T19:18:50.141Z,984.686
2018-10-05T19:20:50.135Z,984.680
2018-10-05T19:22:50.078Z,984.669
2018-10-05T19:24:50.129Z,984.637
2018-10-05T19:26:50.474Z,984.629
2018-10-05T19:28:49.629Z,984.623
2018-10-05T19:30:49.640Z,984.625
2018-10-05T19:32:49.827Z,984.590
2018-10-05T19:34:50.170Z,984.576
2018-10-05T19:36:50.305Z,984.547
2018-10-05T19:38:50.311Z,984.529
2018-10-05T19:40:50.350Z,984.529
2018-10-05T19:42:50.298Z,984.479
2018-10-05T19:44:50.373Z,984.463
2018-10-05T19:46:49.685Z,984.469
2018-10-05T19:48:49.705Z,984.458
2018-10-05T19:50:49.765Z,984.446
2018-10-05T19:52:49.996Z,984.438
2018-10-05T19:54:50.217Z,984.456
2018-10-05T19:56:50.436Z,984.487
2018-10-05T19:58:50.404Z,984.506
2018-10-05T20:00:50.461Z,984.517
2018-10-05T20:02:50.386Z,984.561
2018-10-05T20:04:49.785Z,984.548
2018-10-05T20:06:50.025Z,984.527
2018-10-05T20:08:50.000Z,984.521
2018-10-05T20:10:50.009Z,984.544
2018-10-05T20:12:49.952Z,984.545
2018-10-05T20:14:49.941Z,984.546
2018-10-05T20:16:50.027Z,984.535
2018-10-05T20:18:50.050Z,984.511
2018-10-05T20:20:50.027Z,984.504
2018-10-05T20:22:50.107Z,984.509
2018-10-05T20:24:50.140Z,984.496
2018-10-05T20:26:50.278Z,984.480
2018-10-05T20:28:50.300Z,984.466
2018-10-05T20:30:50.271Z,984.469
2018-10-05T20:32:50.230Z,984.469
2018-10-05T20:34:50.545Z,984.493
2018-10-05T20:36:50.822Z,984.528
2018-10-05T20:38:49.990Z,984.528
2018-10-05T20:40:50.150Z,984.528
2018-10-05T20:42:50.146Z,984.507
2018-10-05T20:44:50.143Z,984.526
2018-10-05T20:46:50.390Z,984.550
2018-10-05T20:48:50.427Z,984.547
2018-10-05T20:50:50.323Z,984.525
2018-10-05T20:52:50.373Z,984.486
2018-10-05T20:54:50.393Z,984.486
2018-10-05T20:56:49.611Z,984.470
2018-10-05T20:58:49.631Z,984.470
2018-10-05T21:00:49.733Z,984.470
2018-10-05T21:02:49.717Z,984.461
2018-10-05T21:04:50.132Z,984.461
2018-10-05T21:06:50.599Z,984.470
2018-10-05T21:08:50.003Z,984.471
2018-10-05T21:10:50.048Z,984.452
2018-10-05T21:12:50.002Z,984.442
2018-10-05T21:14:49.994Z,984.424
2018-10-05T21:16:50.184Z,984.426
2018-10-05T21:18:50.137Z,984.414
2018-10-05T21:20:50.095Z,984.425
2018-10-05T21:22:50.141Z,984.402
2018-10-05T21:24:50.111Z,984.395
2018-10-05T21:26:50.275Z,984.369
2018-10-05T21:28:50.225Z,984.354
2018-10-05T21:30:50.321Z,984.365
2018-10-05T21:32:50.563Z,984.371
2018-10-05T21:34:50.297Z,984.371
2018-10-05T21:36:49.701Z,984.353
2018-10-05T21:38:50.161Z,984.327
2018-10-05T21:40:50.458Z,984.316
2018-10-05T21:42:50.499Z,984.305
2018-10-05T21:44:50.519Z,984.304
2018-10-05T21:46:49.891Z,984.310
2018-10-05T21:48:49.906Z,984.305
2018-10-05T21:50:49.966Z,984.288
2018-10-05T21:52:49.983Z,984.285
2018-10-05T21:54:49.981Z,984.308
2018-10-05T21:56:50.096Z,984.318
2018-10-05T21:58:50.059Z,984.303
2018-10-05T22:00:50.011Z,984.281
2018-10-05T22:02:50.081Z,984.262
2018-10-05T22:04:50.293Z,984.270
2018-10-05T22:06:50.479Z,984.255
2018-10-05T22:08:50.586Z,984.230
2018-10-05T22:10:50.558Z,984.232
2018-10-05T22:12:50.481Z,984.214
2018-10-05T22:14:50.520Z,984.219
2018-10-05T22:16:49.686Z,984.203
2018-10-05T22:18:49.645Z,984.201
2018-10-05T22:20:49.786Z,984.192
2018-10-05T22:22:49.774Z,984.186
2018-10-05T22:24:49.831Z,984.183
2018-10-05T22:26:50.004Z,984.167
2018-10-05T22:28:49.969Z,984.169
2018-10-05T22:30:49.945Z,984.159
2018-10-05T22:32:49.933Z,984.156
2018-10-05T22:34:50.251Z,984.158
2018-10-05T22:36:50.418Z,984.141
2018-10-05T22:38:50.464Z,984.135
2018-10-05T22:40:50.452Z,984.131
2018-10-05T22:42:50.516Z,984.121
2018-10-05T22:44:50.596Z,984.090
2018-10-05T22:46:49.666Z,984.078
2018-10-05T22:48:49.716Z,984.060
2018-10-05T22:50:49.681Z,984.055
2018-10-05T22:52:49.709Z,984.048
2018-10-05T22:54:49.755Z,984.050
2018-10-05T22:56:50.092Z,984.042
2018-10-05T22:58:50.075Z,984.009
2018-10-05T23:00:50.105Z,983.983
2018-10-05T23:02:50.202Z,983.948
2018-10-05T23:04:50.401Z,983.945
2018-10-05T23:06:50.537Z,983.924
2018-10-05T23:08:49.639Z,983.940
2018-10-05T23:10:49.635Z,983.950
2018-10-05T23:12:49.704Z,983.892
2018-10-05T23:14:49.791Z,983.857
2018-10-05T23:16:49.984Z,983.837
2018-10-05T23:18:50.015Z,983.847
2018-10-05T23:20:50.038Z,983.864
2018-10-05T23:22:50.129Z,983.864
2018-10-05T23:24:50.236Z,983.883
2018-10-05T23:26:50.441Z,983.917
2018-10-05T23:28:50.436Z,983.917
2018-10-05T23:30:50.532Z,983.953
2018-10-05T23:32:50.529Z,983.968
2018-10-05T23:34:49.779Z,983.972
2018-10-05T23:36:49.954Z,983.976
2018-10-05T23:38:49.977Z,983.989
2018-10-05T23:40:50.030Z,983.990
2018-10-05T23:42:50.057Z,983.995
2018-10-05T23:44:50.049Z,983.967
2018-10-05T23:46:50.265Z,983.936
2018-10-05T23:48:50.268Z,983.885
2018-10-05T23:50:50.274Z,983.850
2018-10-05T23:52:50.241Z,983.841
2018-10-05T23:54:50.198Z,983.872
2018-10-05T23:56:50.395Z,983.876
2018-10-05T23:58:50.368Z,983.880
